Accueil
METAR-TAF:

METAR-TAF

Aéroports :

Paris, France

Aéroport de Paris-Le Bourget

latitude: 48-58N, longitude: 002-27E, altitude: 66 m

Observation

Le bulletin a été fait il y a 31 minutes, à 10:30 UTC
Vent 8 kt de sud/sud-est
Température 10°C
Humidité 76%
Pression 1010 hPa
Visibilité: 7000 m

METAR: LFPB 221030Z AUTO 16008KT 7000 NSC 10/06 Q1010 NOSIG

Heure: 12:01 (11:01 UTC)

Prévision

Le bulletin a été fait il y a 3 heures et 48 minutes, à 07:13 UTC
Prévision valable du 22 à 07 UTC au 23 à 06 UTC
Vent 10 kt de sud
Visibilité 10 km ou plus
Nuages épars à une hauteur de 1200 ft
Evoluant progressivement
du 22 à 07 UTC au 22 à 09 UTC
Visibilité 10 km ou plus
pas de nuages en-dessous de 1500 mètres et pas de cumulonimbus.
Evoluant progressivement
du 23 à 00 UTC au 23 à 02 UTC
Vent 15 kt de sud avec des rafales jusqu'à 25 kt

TAF: LFPB 220713Z 2207/2306 19010KT 9999 SCT012 BECMG 2207/2209 CAVOK BECMG 2300/2302 19015G25KT

Observations et prévisions météorologiques de plus de 4000 aéroports (messages METAR et TAF).

Les stations disponibles sont représentées par des disques jaunes et rouges sur la carte.

Passer la souris dessus pour voir le nom de la station.

Cliquer dessus pour voir les observations et prévisions météorologiques.

Pour changer de carte: cliquez sur les boutons verts avec une croix noire pour zoomer, sur le bouton vert avec un tiret pour effectuer un zoom arrière, ou sur les flèches vertes pour les cartes adjacentes.


METAR-TAF: